Time;durP1;ratioP1;P1;durP2;ratioP2;P2;SDS_P1;SDS_P2;PMS_P1;PMS_P2;Temp;Humidity;BMP_temperature;BMP_pressure;BME280_temperature;BME280_humidity;BME280_pressure;Samples;Min_cycle;Max_cycle;Signal;HPM_P1;HPM_P2
2022/06/19 00:01:44;;;;;;;;;;;;;;;-144.99;74.88;52256.50;5116473;27;19924;-73
2022/06/19 00:04:12;;;;;;;;;;;;;;;-144.99;75.44;52215.75;5126267;28;19996;-73
2022/06/19 00:06:40;;;;;;;;;;;;;;;-144.99;75.90;52266.69;5124215;28;19923;-72
2022/06/19 00:09:07;;;;;;;;;;;;;;;-144.99;76.54;52215.75;5127813;27;19927;-73
2022/06/19 00:11:34;;;;;;;;;;;;;;;-144.99;77.03;52256.50;5129452;28;19923;-73
2022/06/19 00:14:01;;;;;;;;;;;;;;;-144.99;77.85;52276.88;5130449;28;19988;-73
2022/06/19 00:16:28;;;;;;;;;;;;;;;-144.99;78.18;52256.50;5123438;28;19908;-72
2022/06/19 00:18:54;;;;;;;;;;;;;;;-144.99;78.70;52219.81;5120407;27;19919;-75
2022/06/19 00:21:21;;;;;;;;;;;;;;;-144.99;78.57;52252.44;5126026;28;19950;-73
2022/06/19 00:23:49;;;;;;;;;;;;;;;-144.99;78.73;52227.97;5124013;28;19915;-73
2022/06/19 00:26:16;;;;;;;;;;;;;;;-144.99;79.38;52266.69;5118846;28;19994;-73
2022/06/19 00:28:44;;;;;;;;;;;;;;;-144.99;79.70;52254.47;5122689;27;19923;-73
2022/06/19 00:31:11;;;;;;;;;;;;;;;-144.99;79.63;52268.72;5097202;28;19968;-72
2022/06/19 00:33:37;;;;;;;;;;;;;;;-144.99;79.36;52232.03;5106525;28;19927;-73
2022/06/19 00:36:05;;;;;;;;;;;;;;;-144.99;79.09;52268.72;5104003;28;20409;-73
2022/06/19 00:38:32;;;;;;;;;;;;;;;-144.99;79.13;52240.19;5108945;27;19988;-73
2022/06/19 00:41:00;;;;;;;;;;;;;;;-144.99;78.62;52244.28;5107987;28;20010;-72
2022/06/19 00:43:28;;;;;;;;;;;;;;;-144.99;78.86;52262.63;5109626;28;19927;-72
2022/06/19 00:45:59;;;;;;;;;;;;;;;-144.99;79.02;52260.56;5117708;28;19941;-73
2022/06/19 00:48:28;;;;;;;;;;;;;;;-144.99;78.70;52256.50;5127960;27;19924;-73
2022/06/19 00:50:54;;;;;;;;;;;;;;;-144.99;78.69;52236.13;5123267;28;19924;-72
2022/06/19 00:53:24;;;;;;;;;;;;;;;-144.99;78.86;52248.34;5114336;28;19923;-72
2022/06/19 00:55:52;;;;;;;;;;;;;;;-144.99;78.92;52244.28;5114351;28;20321;-72
2022/06/19 00:58:21;;;;;;;;;;;;;;;-144.99;79.08;52268.72;5114281;27;19923;-71
2022/06/19 01:00:51;;;;;;;;;;;;;;;-144.99;79.33;52217.78;5094106;28;20026;-71
2022/06/19 01:03:20;;;;;;;;;;;;;;;-144.99;79.45;52242.22;5096817;28;19923;-72
2022/06/19 01:05:48;;;;;;;;;;;;;;;-144.99;79.42;52217.78;5104591;28;19927;-71
2022/06/19 01:08:14;;;;;;;;;;;;;;;-144.99;79.77;52264.66;5103885;28;19930;-71
2022/06/19 01:10:42;;;;;;;;;;;;;;;-144.99;80.27;52264.66;5102230;28;20002;-71
2022/06/19 01:13:09;;;;;;;;;;;;;;;-144.99;80.55;52236.13;5105669;28;19923;-71
2022/06/19 01:15:38;;;;;;;;;;;;;;;-144.99;80.63;52256.50;5102825;28;19923;-71
2022/06/19 01:18:06;;;;;;;;;;;;;;;-144.99;80.74;52268.72;5098090;28;19984;-71
2022/06/19 01:20:34;;;;;;;;;;;;;;;-144.99;81.01;52225.94;5104242;27;20374;-72
2022/06/19 01:23:06;;;;;;;;;;;;;;;-144.99;81.51;52254.47;5101551;28;19923;-70
2022/06/19 01:25:35;;;;;;;;;;;;;;;-144.99;81.86;52252.44;5104385;28;20006;-72
2022/06/19 01:30:48;;;;;;;;;;;;;;;-144.99;82.55;52270.78;5101656;28;19985;-74
2022/06/19 01:33:15;;;;;;;;;;;;;;;-144.99;82.95;52264.66;5100400;28;19951;-74
2022/06/19 01:35:43;;;;;;;;;;;;;;;-144.99;83.34;52219.81;5103391;28;20015;-74
2022/06/19 01:38:11;;;;;;;;;;;;;;;-144.99;83.76;52276.88;5104156;28;20287;-74
2022/06/19 01:40:42;;;;;;;;;;;;;;;-144.99;83.96;52264.66;5103810;27;21600;-73
2022/06/19 01:43:09;;;;;;;;;;;;;;;-144.99;84.42;52240.19;5112838;28;19924;-71
2022/06/19 01:45:36;;;;;;;;;;;;;;;-144.99;84.58;52260.56;5103712;28;19974;-72
2022/06/19 01:48:03;;;;;;;;;;;;;;;-144.99;85.01;52230.00;5103110;28;19987;-73
2022/06/19 01:50:31;;;;;;;;;;;;;;;-144.99;85.00;52223.88;5109907;28;20010;-72
2022/06/19 01:53:04;;;;;;;;;;;;;;;-144.99;85.11;52256.50;5102835;28;20037;-72
2022/06/19 01:55:31;;;;;;;;;;;;;;;-144.99;85.31;52238.16;5100628;28;19928;-72
2022/06/19 01:58:00;;;;;;;;;;;;;;;-144.99;85.04;52260.56;5102807;28;19927;-73
2022/06/19 02:00:31;;;;;;;;;;;;;;;-144.99;84.97;52276.88;5095278;28;19927;-73
2022/06/19 02:03:01;;;;;;;;;;;;;;;-144.99;84.59;52250.38;5105198;28;19943;-74
2022/06/19 02:05:28;;;;;;;;;;;;;;;-144.99;84.51;52223.88;5102560;28;20023;-73
2022/06/19 02:07:54;;;;;;;;;;;;;;;-144.99;84.45;52215.75;5106405;28;19977;-73
2022/06/19 02:10:21;;;;;;;;;;;;;;;-144.99;84.43;52256.50;5096976;28;20505;-72
2022/06/19 02:12:48;;;;;;;;;;;;;;;-144.99;84.15;52264.66;5104543;28;20435;-73
2022/06/19 02:15:15;;;;;;;;;;;;;;;-144.99;84.17;52264.66;5104885;27;20051;-73
2022/06/19 02:17:44;;;;;;;;;;;;;;;-144.99;83.91;52264.66;5107998;28;19966;-73
2022/06/19 02:20:12;;;;;;;;;;;;;;;-144.99;83.57;52276.88;5101872;28;20143;-73
2022/06/19 02:22:39;;;;;;;;;;;;;;;-144.99;83.76;52244.28;5096126;28;19976;-73
2022/06/19 02:25:06;;;;;;;;;;;;;;;-144.99;83.80;52238.16;5104286;28;20388;-73
2022/06/19 02:27:33;;;;;;;;;;;;;;;-144.99;84.04;52260.56;5106551;28;19928;-73
2022/06/19 02:30:01;;;;;;;;;;;;;;;-144.99;83.99;52254.47;5106195;28;19930;-73
2022/06/19 02:32:32;;;;;;;;;;;;;;;-144.99;84.25;52232.03;5106477;28;20063;-73
2022/06/19 02:34:59;;;;;;;;;;;;;;;-144.99;84.22;52248.34;5111876;28;19947;-73
2022/06/19 02:37:26;;;;;;;;;;;;;;;-144.99;84.38;52280.97;5109704;28;19927;-74
2022/06/19 02:39:56;;;;;;;;;;;;;;;-144.99;84.37;52244.28;5117116;28;19932;-73
2022/06/19 02:42:31;;;;;;;;;;;;;;;-144.99;84.99;52248.34;5116330;28;19924;-74
2022/06/19 02:45:01;;;;;;;;;;;;;;;-144.99;85.02;52287.06;5110709;28;19935;-74
2022/06/19 02:47:31;;;;;;;;;;;;;;;-144.99;85.76;52256.50;5111271;28;19928;-74
2022/06/19 02:49:57;;;;;;;;;;;;;;;-144.99;85.99;52272.81;5111962;28;19931;-73
2022/06/19 02:52:24;;;;;;;;;;;;;;;-144.99;86.44;52256.50;5104555;28;19979;-74
2022/06/19 02:54:51;;;;;;;;;;;;;;;-144.99;86.78;52236.13;5114389;28;19924;-74
2022/06/19 02:57:17;;;;;;;;;;;;;;;-144.99;87.23;52256.50;5112417;28;19932;-74
2022/06/19 02:59:44;;;;;;;;;;;;;;;-144.99;87.26;52264.66;5102610;28;19996;-73
2022/06/19 03:02:12;;;;;;;;;;;;;;;-144.99;87.44;52240.19;5115013;28;19966;-73
2022/06/19 03:04:42;;;;;;;;;;;;;;;-144.99;87.95;52256.50;5109397;27;19937;-73
2022/06/19 03:07:08;;;;;;;;;;;;;;;-144.99;88.30;52227.97;5103741;28;19950;-73
2022/06/19 03:09:35;;;;;;;;;;;;;;;-144.99;88.30;52268.72;5116515;28;19930;-73
2022/06/19 03:12:02;;;;;;;;;;;;;;;-144.99;88.59;52240.19;5113228;28;19928;-73
2022/06/19 03:14:29;;;;;;;;;;;;;;;-144.99;88.90;52285.03;5118648;27;21260;-73
2022/06/19 03:16:55;;;;;;;;;;;;;;;-144.99;89.09;52256.50;5110265;28;20439;-73
2022/06/19 03:19:22;;;;;;;;;;;;;;;-144.99;89.27;52295.22;5111373;28;19932;-74
2022/06/19 03:21:50;;;;;;;;;;;;;;;-144.99;90.03;52262.63;5102890;28;19939;-73
2022/06/19 03:24:17;;;;;;;;;;;;;;;-144.99;89.79;52236.13;5103387;27;19928;-73
2022/06/19 03:26:44;;;;;;;;;;;;;;;-144.99;89.86;52276.88;5105335;28;19924;-74
2022/06/19 03:29:10;;;;;;;;;;;;;;;-144.99;89.91;52276.88;5107876;28;19923;-74
2022/06/19 03:31:37;;;;;;;;;;;;;;;-144.99;90.00;52252.44;5097661;28;20019;-74
2022/06/19 03:34:04;;;;;;;;;;;;;;;-144.99;89.46;52289.13;5110975;28;20411;-73
2022/06/19 03:36:30;;;;;;;;;;;;;;;-144.99;89.58;52244.28;5107018;28;19927;-74
2022/06/19 03:38:58;;;;;;;;;;;;;;;-144.99;89.58;52285.03;5099201;28;20045;-73
2022/06/19 03:41:25;;;;;;;;;;;;;;;-144.99;90.00;52250.38;5110537;28;19973;-74
2022/06/19 03:43:51;;;;;;;;;;;;;;;-144.99;89.81;52280.97;5104509;28;19959;-74
2022/06/19 03:46:19;;;;;;;;;;;;;;;-144.99;90.63;52264.66;5101855;27;19949;-73
2022/06/19 03:48:47;;;;;;;;;;;;;;;-144.99;90.37;52260.56;5101002;28;19924;-73
2022/06/19 03:51:15;;;;;;;;;;;;;;;-144.99;90.13;52262.63;5099568;28;19966;-74
2022/06/19 03:53:42;;;;;;;;;;;;;;;-144.99;89.75;52215.75;5104122;28;20450;-73
2022/06/19 03:56:11;;;;;;;;;;;;;;;-144.99;89.63;52276.88;5108004;27;19969;-72
2022/06/19 03:58:46;;;;;;;;;;;;;;;-144.99;90.21;52276.88;5104502;28;20456;-73
2022/06/19 04:01:14;;;;;;;;;;;;;;;-144.99;90.14;52248.34;5102121;28;19928;-72
2022/06/19 04:03:40;;;;;;;;;;;;;;;-144.99;89.93;52244.28;5146779;22;20449;-72
2022/06/19 04:06:08;;;;;;;;;;;;;;;-144.99;89.69;52248.34;5126825;27;19927;-74
2022/06/19 04:08:35;;;;;;;;;;;;;;;-144.99;90.11;52211.66;5126076;27;20390;-74
2022/06/19 04:11:01;;;;;;;;;;;;;;;-144.99;89.91;52240.19;5121984;27;20248;-75
2022/06/19 04:13:29;;;;;;;;;;;;;;;-144.99;89.55;52227.97;5118546;27;20298;-71
2022/06/19 04:15:56;;;;;;;;;;;;;;;-144.99;89.77;52240.19;5120641;27;20146;-71
2022/06/19 04:18:22;;;;;;;;;;;;;;;-144.99;89.54;52240.19;5122568;27;19924;-71
2022/06/19 04:20:49;;;;;;;;;;;;;;;-144.99;89.55;52240.19;5117233;27;19976;-72
2022/06/19 04:23:16;;;;;;;;;;;;;;;-144.99;89.34;52278.91;5120532;27;19955;-71
2022/06/19 04:25:43;;;;;;;;;;;;;;;-144.99;89.13;52260.56;5120934;27;19931;-71
2022/06/19 04:28:09;;;;;;;;;;;;;;;-144.99;89.01;52268.72;5128206;27;19923;-72
2022/06/19 04:30:37;;;;;;;;;;;;;;;-144.99;88.77;52256.50;5118160;27;19924;-72
2022/06/19 04:33:04;;;;;;;;;;;;;;;-144.99;88.46;52256.50;5113556;27;19985;-70
2022/06/19 04:35:30;;;;;;;;;;;;;;;-144.99;87.89;52256.50;5114603;27;20479;-70
2022/06/19 04:37:57;;;;;;;;;;;;;;;-144.99;87.49;52215.75;5128114;27;20234;-71
2022/06/19 04:40:24;;;;;;;;;;;;;;;-144.99;86.81;52244.28;5117687;27;19934;-70
2022/06/19 04:42:50;;;;;;;;;;;;;;;-144.99;86.40;52236.13;5116357;27;19924;-71
2022/06/19 04:45:17;;;;;;;;;;;;;;;-144.99;85.98;52248.34;5116472;27;20443;-72
2022/06/19 04:47:45;;;;;;;;;;;;;;;-144.99;85.70;52223.88;5124242;27;20416;-72
2022/06/19 04:50:11;;;;;;;;;;;;;;;-144.99;85.81;52174.97;5119733;27;20438;-72
2022/06/19 04:52:38;;;;;;;;;;;;;;;-144.99;85.81;52262.63;5119980;27;19942;-72
2022/06/19 04:55:05;;;;;;;;;;;;;;;-144.99;85.42;52201.47;5120488;27;19934;-71
2022/06/19 04:57:31;;;;;;;;;;;;;;;-144.99;85.29;52225.94;5121979;27;19928;-72
2022/06/19 04:59:58;;;;;;;;;;;;;;;-144.99;85.19;52293.19;5113688;27;20850;-71
2022/06/19 05:02:24;;;;;;;;;;;;;;;-144.99;84.83;52252.44;5116268;27;20333;-72
2022/06/19 05:04:52;;;;;;;;;;;;;;;-144.99;84.91;52215.75;5120735;27;20031;-71
2022/06/19 05:07:18;;;;;;;;;;;;;;;-144.99;85.18;52230.00;5114442;27;19931;-73
2022/06/19 05:09:45;;;;;;;;;;;;;;;-144.99;85.52;52232.03;5122802;27;20442;-72
2022/06/19 05:12:12;;;;;;;;;;;;;;;-144.99;85.67;52201.47;5115751;27;19924;-72
2022/06/19 05:14:39;;;;;;;;;;;;;;;-144.99;85.74;52256.50;5125225;27;19928;-72
2022/06/19 05:17:05;;;;;;;;;;;;;;;-144.99;86.07;52252.44;5111738;27;19928;-72
2022/06/19 05:19:32;;;;;;;;;;;;;;;-144.99;85.96;52219.81;5128458;27;19924;-72
2022/06/19 05:22:01;;;;;;;;;;;;;;;-144.99;86.20;52244.28;5117554;27;19971;-71
2022/06/19 05:24:28;;;;;;;;;;;;;;;-144.99;86.15;52256.50;5125107;27;19982;-73
2022/06/19 05:26:55;;;;;;;;;;;;;;;-144.99;86.18;52240.19;5125039;27;19928;-71
2022/06/19 05:29:21;;;;;;;;;;;;;;;-144.99;85.82;52238.16;5120049;27;19939;-71
2022/06/19 05:31:48;;;;;;;;;;;;;;;-144.99;85.37;52223.88;5114164;27;19928;-71
2022/06/19 05:34:14;;;;;;;;;;;;;;;-144.99;85.21;52219.81;5120879;27;20585;-72
2022/06/19 05:36:41;;;;;;;;;;;;;;;-144.99;84.35;52227.97;5125640;27;20391;-72
2022/06/19 05:39:09;;;;;;;;;;;;;;;-144.99;84.00;52227.97;5113090;27;19961;-72
2022/06/19 05:41:38;;;;;;;;;;;;;;;-144.99;83.46;52211.66;5119007;27;19963;-71
2022/06/19 05:44:05;;;;;;;;;;;;;;;-144.99;83.30;52170.91;5116569;27;19923;-72
2022/06/19 05:46:31;;;;;;;;;;;;;;;-144.99;83.89;52246.31;5122087;27;20026;-72
2022/06/19 05:48:58;;;;;;;;;;;;;;;-144.99;84.07;52236.13;5118102;27;19927;-71
2022/06/19 05:51:26;;;;;;;;;;;;;;;-144.99;85.15;52205.53;5126294;27;19927;-72
2022/06/19 05:53:53;;;;;;;;;;;;;;;-144.99;85.18;52211.66;5122948;27;19923;-72
2022/06/19 05:56:21;;;;;;;;;;;;;;;-144.99;85.72;52240.19;5111280;27;20455;-71
2022/06/19 05:58:48;;;;;;;;;;;;;;;-144.99;85.98;52227.97;5120873;27;19928;-72
2022/06/19 06:01:15;;;;;;;;;;;;;;;-144.99;86.25;52240.19;5118976;27;19972;-72
2022/06/19 06:03:42;;;;;;;;;;;;;;;-144.99;86.35;52223.88;5120676;27;19946;-72
2022/06/19 06:06:13;;;;;;;;;;;;;;;-144.99;86.68;52256.50;5115921;27;19927;-72
2022/06/19 06:08:39;;;;;;;;;;;;;;;-144.99;86.14;52244.28;5121499;27;19923;-74
2022/06/19 06:11:06;;;;;;;;;;;;;;;-144.99;85.90;52248.34;5115309;27;19923;-74
2022/06/19 06:13:34;;;;;;;;;;;;;;;-144.99;85.14;52240.19;5114481;27;19928;-74
2022/06/19 06:16:01;;;;;;;;;;;;;;;-144.99;84.33;52240.19;5122295;27;19927;-74
2022/06/19 06:18:28;;;;;;;;;;;;;;;-144.99;83.39;52232.03;5112233;27;20451;-72
2022/06/19 06:20:55;;;;;;;;;;;;;;;-144.99;82.01;52219.81;5114270;27;20290;-73
2022/06/19 06:23:22;;;;;;;;;;;;;;;-144.99;79.78;52244.28;5112880;27;19980;-71
2022/06/19 06:25:48;;;;;;;;;;;;;;;-144.99;79.21;52209.63;5118571;27;19959;-71
2022/06/19 06:28:15;;;;;;;;;;;;;;;-144.99;76.47;52215.75;5115151;27;19977;-73
2022/06/19 06:30:43;;;;;;;;;;;;;;;-144.99;75.76;52227.97;5112908;28;20348;-72
2022/06/19 06:33:09;;;;;;;;;;;;;;;-144.99;73.98;52248.34;5115782;27;20018;-73
2022/06/19 06:35:35;;;;;;;;;;;;;;;-144.99;73.52;52227.97;5119584;27;19930;-71
2022/06/19 06:38:02;;;;;;;;;;;;;;;-144.99;72.54;52203.50;5115004;27;20014;-71
2022/06/19 06:40:29;;;;;;;;;;;;;;;-144.99;70.62;52240.19;5126058;27;19966;-69
2022/06/19 06:42:55;;;;;;;;;;;;;;;-144.99;69.62;52183.13;5123834;27;20551;-71
2022/06/19 06:45:22;;;;;;;;;;;;;;;-144.99;68.46;52211.66;5121557;27;19972;-71
2022/06/19 06:47:50;;;;;;;;;;;;;;;-144.99;67.09;52211.66;5133709;27;20304;-71
2022/06/19 06:50:16;;;;;;;;;;;;;;;-144.99;65.30;52221.84;5123591;27;20021;-73
2022/06/19 06:52:43;;;;;;;;;;;;;;;-144.99;64.14;52142.38;5124198;27;19924;-74
2022/06/19 06:55:10;;;;;;;;;;;;;;;-144.99;62.62;52162.75;5126059;27;19928;-73
2022/06/19 06:57:36;;;;;;;;;;;;;;;-144.99;61.80;52146.44;5129383;27;20448;-74
2022/06/19 07:00:04;;;;;;;;;;;;;;;-144.99;61.56;52162.75;5122260;27;19928;-75
2022/06/19 07:02:30;;;;;;;;;;;;;;;-144.99;60.28;52199.44;5128027;27;20060;-74
2022/06/19 07:04:58;;;;;;;;;;;;;;;-144.99;60.71;52179.06;5128625;27;20437;-75
2022/06/19 07:07:24;;;;;;;;;;;;;;;-144.99;59.74;52185.16;5127781;27;19988;-73
2022/06/19 07:09:51;;;;;;;;;;;;;;;-144.99;57.80;52191.28;5127068;27;20434;-73
2022/06/19 07:12:17;;;;;;;;;;;;;;;-144.99;58.25;52232.03;5126428;27;19954;-75
2022/06/19 07:14:44;;;;;;;;;;;;;;;-144.99;57.22;52223.88;5137734;27;19928;-72
2022/06/19 07:17:11;;;;;;;;;;;;;;;-144.99;58.65;52215.75;5127450;27;20406;-74
2022/06/19 07:19:37;;;;;;;;;;;;;;;-144.99;57.69;52209.63;5131836;27;19984;-74
2022/06/19 07:22:05;;;;;;;;;;;;;;;-144.99;57.66;52183.13;5128671;27;19935;-74
2022/06/19 07:24:32;;;;;;;;;;;;;;;-144.99;57.66;52227.97;5125811;27;19988;-74
2022/06/19 07:26:58;;;;;;;;;;;;;;;-144.99;56.96;52250.38;5135137;27;19938;-75
2022/06/19 07:29:25;;;;;;;;;;;;;;;-144.99;57.09;52227.97;5126056;27;19923;-75
2022/06/19 07:31:53;;;;;;;;;;;;;;;-144.99;56.62;52195.34;5122376;27;20378;-73
2022/06/19 07:34:19;;;;;;;;;;;;;;;-144.99;56.53;52223.88;5120320;27;19928;-73
2022/06/19 07:36:46;;;;;;;;;;;;;;;-144.99;56.06;52193.31;5126888;27;19935;-73
2022/06/19 07:39:14;;;;;;;;;;;;;;;-144.99;54.48;52207.59;5124666;27;20164;-71
2022/06/19 07:41:40;;;;;;;;;;;;;;;-144.99;53.87;52191.28;5121403;27;20327;-73
2022/06/19 07:44:07;;;;;;;;;;;;;;;-144.99;53.61;52211.66;5123856;27;19924;-74
2022/06/19 07:50:09;;;;;;;;;;;;;;;-144.99;53.29;52193.31;5132617;27;19919;-74
2022/06/19 07:52:04;;;;;;;;;;;;;;;-144.99;52.44;52177.00;5117506;27;19935;-77
2022/06/19 07:54:32;;;;;;;;;;;;;;;-144.99;52.14;52191.28;5126349;27;19931;-74
2022/06/19 07:56:59;;;;;;;;;;;;;;;-144.99;52.25;52158.66;5129584;27;20395;-75
2022/06/19 07:59:26;;;;;;;;;;;;;;;-144.99;51.69;52105.69;5117218;27;20405;-74
2022/06/19 08:01:53;;;;;;;;;;;;;;;-144.99;51.42;52146.44;5117471;27;20048;-75
2022/06/19 08:04:19;;;;;;;;;;;;;;;-144.99;51.26;52154.59;5125905;27;20262;-76
2022/06/19 08:06:46;;;;;;;;;;;;;;;-144.99;51.70;52138.28;5114228;27;19988;-75
2022/06/19 08:09:12;;;;;;;;;;;;;;;-144.99;52.68;52152.56;5119247;27;20158;-76
2022/06/19 08:11:40;;;;;;;;;;;;;;;-144.99;54.18;52156.63;5121425;27;19989;-74
2022/06/19 08:14:07;;;;;;;;;;;;;;;-144.99;55.12;52146.44;5120166;27;19923;-74
2022/06/19 08:16:34;;;;;;;;;;;;;;;-144.99;55.69;52126.06;5116955;27;19961;-77
2022/06/19 08:19:01;;;;;;;;;;;;;;;-144.99;55.58;52154.59;5116412;27;19923;-77
2022/06/19 08:21:27;;;;;;;;;;;;;;;-144.99;55.55;52187.19;5118447;27;19962;-75
2022/06/19 08:23:54;;;;;;;;;;;;;;;-144.99;55.46;52162.75;5122574;27;20362;-77
2022/06/19 08:26:20;;;;;;;;;;;;;;;-144.99;55.78;52126.06;5121778;27;20368;-76
2022/06/19 08:28:51;;;;;;;;;;;;;;;-144.99;55.92;52146.44;5128445;27;19923;-76
2022/06/19 08:31:18;;;;;;;;;;;;;;;-144.99;55.99;52117.91;5121935;27;19927;-74
2022/06/19 08:33:44;;;;;;;;;;;;;;;-144.99;55.61;52164.78;5115634;27;20015;-76
2022/06/19 08:36:12;;;;;;;;;;;;;;;-144.99;55.51;52146.44;5124915;27;19927;-76
2022/06/19 08:38:41;;;;;;;;;;;;;;;-144.99;55.24;52130.13;5117915;27;20173;-76
2022/06/19 08:41:24;;;;;;;;;;;;;;;-144.99;54.61;52162.75;5122764;27;19927;-77
2022/06/19 08:44:22;;;;;;;;;;;;;;;-144.99;55.05;52142.38;5115040;27;19927;-77
2022/06/19 08:46:54;;;;;;;;;;;;;;;-144.99;55.24;52134.22;5118108;27;20358;-76
2022/06/19 08:49:32;;;;;;;;;;;;;;;-144.99;55.35;52146.44;5120694;27;20587;-77
2022/06/19 08:52:03;;;;;;;;;;;;;;;-144.99;55.88;52174.97;5121750;27;19959;-76
2022/06/19 08:54:35;;;;;;;;;;;;;;;-144.99;55.52;52142.38;5126672;27;20000;-75
2022/06/19 08:57:05;;;;;;;;;;;;;;;-144.99;54.83;52121.97;5125375;27;20414;-76
2022/06/19 08:59:38;;;;;;;;;;;;;;;-144.99;54.65;52160.72;5116899;27;19935;-74
2022/06/19 09:02:10;;;;;;;;;;;;;;;-144.99;54.32;52117.91;5114257;27;20015;-73
2022/06/19 09:07:33;;;;;;;;;;;;;;;-144.99;53.13;52099.56;5127150;27;21008;-75
2022/06/19 09:10:18;;;;;;;;;;;;;;;-144.99;53.57;52191.28;5119176;27;19980;-76
2022/06/19 09:12:56;;;;;;;;;;;;;;;-144.99;54.18;52146.44;5121346;27;20271;-75
2022/06/19 09:15:29;;;;;;;;;;;;;;;-144.99;54.77;52187.19;5114255;27;19924;-75
2022/06/19 09:18:01;;;;;;;;;;;;;;;-144.99;55.31;52183.13;5119535;27;19931;-74
2022/06/19 09:20:33;;;;;;;;;;;;;;;-144.99;55.62;52146.44;5117382;27;19924;-75
2022/06/19 09:23:13;;;;;;;;;;;;;;;-144.99;56.20;52158.66;5118148;27;19992;-74
2022/06/19 09:25:44;;;;;;;;;;;;;;;-144.99;57.09;52170.91;5114569;27;19984;-75
2022/06/19 09:28:13;;;;;;;;;;;;;;;-144.99;57.58;52191.28;5121819;27;20350;-77
2022/06/19 09:30:45;;;;;;;;;;;;;;;-144.99;59.08;52203.50;5122555;27;19923;-75
2022/06/19 09:33:15;;;;;;;;;;;;;;;-144.99;59.54;52150.53;5129598;27;19930;-74
2022/06/19 09:35:44;;;;;;;;;;;;;;;-144.99;60.14;52183.13;5130369;27;19927;-74
2022/06/19 09:38:15;;;;;;;;;;;;;;;-144.99;60.72;52203.50;5117872;27;19968;-76
2022/06/19 09:40:42;;;;;;;;;;;;;;;-144.99;61.20;52191.28;5122896;27;19927;-75
2022/06/19 09:43:12;;;;;;;;;;;;;;;-144.99;61.58;52195.34;5119725;27;19927;-76
2022/06/19 09:45:40;;;;;;;;;;;;;;;-144.99;61.91;52195.34;5129237;27;19956;-75
2022/06/19 09:48:17;;;;;;;;;;;;;;;-144.99;62.28;52215.75;5121099;27;20404;-74
2022/06/19 09:50:46;;;;;;;;;;;;;;;-144.99;62.56;52223.88;5117184;27;19966;-75
2022/06/19 09:53:16;;;;;;;;;;;;;;;-144.99;62.93;52203.50;5115707;27;20052;-75
2022/06/19 09:55:44;;;;;;;;;;;;;;;-144.99;63.48;52236.13;5126331;27;19976;-74
2022/06/19 09:58:14;;;;;;;;;;;;;;;-144.99;64.02;52215.75;5126949;27;20315;-75
2022/06/19 10:00:43;;;;;;;;;;;;;;;-144.99;64.65;52244.28;5118930;27;20387;-76
2022/06/19 10:03:17;;;;;;;;;;;;;;;-144.99;65.67;52242.22;5118930;27;19923;-75
2022/06/19 10:05:45;;;;;;;;;;;;;;;-144.99;66.35;52246.31;5123637;27;19938;-74
2022/06/19 10:08:14;;;;;;;;;;;;;;;-144.99;67.18;52252.44;5117769;27;20000;-74
2022/06/19 10:10:42;;;;;;;;;;;;;;;-144.99;67.69;52211.66;5124772;27;19968;-74
2022/06/19 10:13:12;;;;;;;;;;;;;;;-144.99;68.36;52232.03;5117574;27;19927;-73
2022/06/19 10:15:40;;;;;;;;;;;;;;;-144.99;68.48;52195.34;5118911;27;19934;-73
2022/06/19 10:18:10;;;;;;;;;;;;;;;-144.99;69.07;52211.66;5113822;27;20390;-74
2022/06/19 10:20:46;;;;;;;;;;;;;;;-144.99;69.13;52232.03;5124082;27;19981;-74
2022/06/19 10:23:17;;;;;;;;;;;;;;;-144.99;69.34;52236.13;5123626;27;19976;-74
2022/06/19 10:25:48;;;;;;;;;;;;;;;-144.99;69.69;52215.75;5117118;27;19927;-73
2022/06/19 10:28:26;;;;;;;;;;;;;;;-144.99;69.62;52205.53;5118996;27;19932;-74
2022/06/19 10:30:59;;;;;;;;;;;;;;;-144.99;69.50;52225.94;5113839;28;19951;-74
2022/06/19 10:33:33;;;;;;;;;;;;;;;-144.99;69.50;52187.19;5124055;27;19945;-74
2022/06/19 10:36:03;;;;;;;;;;;;;;;-144.99;69.45;52211.66;5124825;27;19924;-72
2022/06/19 10:38:47;;;;;;;;;;;;;;;-144.99;69.61;52238.16;5117308;28;19923;-76
2022/06/19 10:44:05;;;;;;;;;;;;;;;-144.99;69.55;52183.13;5117799;27;19951;-75
2022/06/19 10:46:33;;;;;;;;;;;;;;;-144.99;69.30;52174.97;5117375;28;19923;-74
2022/06/19 10:49:06;;;;;;;;;;;;;;;-144.99;69.04;52215.75;5124014;28;19969;-74
2022/06/19 10:51:40;;;;;;;;;;;;;;;-144.99;69.79;52174.97;5116577;28;20156;-74
2022/06/19 10:54:16;;;;;;;;;;;;;;;-144.99;69.89;52217.78;5113671;28;20469;-73
2022/06/19 10:56:47;;;;;;;;;;;;;;;-144.99;70.00;52187.19;5129383;28;19924;-74
2022/06/19 10:59:15;;;;;;;;;;;;;;;-144.99;69.78;52187.19;5129738;28;20059;-74
2022/06/19 11:04:30;;;;;;;;;;;;;;;-144.99;71.34;52223.88;5117185;27;19964;-75
2022/06/19 11:07:00;;;;;;;;;;;;;;;-144.99;73.49;52215.75;5117140;27;19931;-75
2022/06/19 11:09:32;;;;;;;;;;;;;;;-144.99;74.89;52177.00;5116658;28;20367;-74
2022/06/19 11:12:02;;;;;;;;;;;;;;;-144.99;76.13;52146.44;5119922;28;19924;-75
2022/06/19 11:14:30;;;;;;;;;;;;;;;-144.99;76.86;52215.75;5109464;28;19931;-73
2022/06/19 11:16:58;;;;;;;;;;;;;;;-144.99;79.05;52187.19;5106264;28;19973;-73
2022/06/19 11:19:35;;;;;;;;;;;;;;;-144.99;78.63;52162.75;5112000;28;19928;-75
2022/06/19 11:22:05;;;;;;;;;;;;;;;-144.99;78.50;52185.16;5111691;28;19927;-74
2022/06/19 11:24:32;;;;;;;;;;;;;;;-144.99;78.96;52187.19;5113360;27;20026;-75
2022/06/19 11:27:00;;;;;;;;;;;;;;;-144.99;78.69;52211.66;5126066;27;19933;-76
2022/06/19 11:29:28;;;;;;;;;;;;;;;-144.99;78.80;52189.25;5121635;27;19928;-74
2022/06/19 11:32:10;;;;;;;;;;;;;;;-144.99;78.97;52203.50;5118027;27;20008;-73
2022/06/19 11:34:48;;;;;;;;;;;;;;;-144.99;79.18;52203.50;5125881;27;19946;-75
2022/06/19 11:37:20;;;;;;;;;;;;;;;-144.99;79.66;52223.88;5129056;27;20327;-73
2022/06/19 11:39:48;;;;;;;;;;;;;;;-144.99;80.52;52191.28;5114343;27;19928;-75
2022/06/19 11:42:25;;;;;;;;;;;;;;;-144.99;80.57;52189.25;5123776;27;19923;-75
2022/06/19 11:44:52;;;;;;;;;;;;;;;-144.99;81.08;52197.41;5113811;27;19988;-73
2022/06/19 11:47:24;;;;;;;;;;;;;;;-144.99;81.88;52232.03;5117358;27;20415;-75
2022/06/19 11:49:51;;;;;;;;;;;;;;;-144.99;82.18;52187.19;5121416;27;19976;-75
2022/06/19 11:52:21;;;;;;;;;;;;;;;-144.99;82.64;52225.94;5119705;27;19934;-75
2022/06/19 11:54:49;;;;;;;;;;;;;;;-144.99;83.07;52227.97;5114103;27;20191;-73
2022/06/19 11:57:21;;;;;;;;;;;;;;;-144.99;83.11;52207.59;5115319;27;19923;-74
2022/06/19 11:59:48;;;;;;;;;;;;;;;-144.99;82.67;52195.34;5119207;27;19927;-74
2022/06/19 12:02:26;;;;;;;;;;;;;;;-144.99;82.78;52211.66;5115013;27;19927;-74
2022/06/19 12:04:54;;;;;;;;;;;;;;;-144.99;83.33;52197.41;5123276;27;19927;-74
2022/06/19 12:07:24;;;;;;;;;;;;;;;-144.99;83.07;52207.59;5122797;27;20455;-74
2022/06/19 12:09:54;;;;;;;;;;;;;;;-144.99;82.76;52183.13;5117068;27;19927;-74
2022/06/19 12:12:21;;;;;;;;;;;;;;;-144.99;83.39;52203.50;5114318;27;20164;-73
2022/06/19 12:14:56;;;;;;;;;;;;;;;-144.99;83.87;52211.66;5121288;27;19923;-76
2022/06/19 12:17:25;;;;;;;;;;;;;;;-144.99;85.13;52203.50;5115346;27;19935;-74
2022/06/19 12:19:56;;;;;;;;;;;;;;;-144.99;85.26;52252.44;5118841;27;19963;-75
2022/06/19 12:22:28;;;;;;;;;;;;;;;-144.99;86.70;52234.09;5112115;27;19923;-74
2022/06/19 12:24:58;;;;;;;;;;;;;;;-144.99;87.84;52240.19;5111830;27;20402;-74
2022/06/19 12:27:27;;;;;;;;;;;;;;;-144.99;88.01;52193.31;5116334;27;19935;-74
2022/06/19 12:29:56;;;;;;;;;;;;;;;-144.99;88.99;52215.75;5110076;27;19938;-75
2022/06/19 12:32:25;;;;;;;;;;;;;;;-144.99;89.53;52236.13;5115317;27;19924;-75
2022/06/19 12:34:54;;;;;;;;;;;;;;;-144.99;90.84;52219.81;5118997;27;19931;-74
2022/06/19 12:37:22;;;;;;;;;;;;;;;-144.99;90.81;52260.56;5111102;27;20046;-74
2022/06/19 12:39:50;;;;;;;;;;;;;;;-144.99;90.84;52215.75;5114591;27;19942;-75
2022/06/19 12:42:23;;;;;;;;;;;;;;;-144.99;91.35;52240.19;5118074;27;19935;-74
2022/06/19 12:44:56;;;;;;;;;;;;;;;-144.99;91.42;52268.72;5112187;27;19927;-74
2022/06/19 12:47:27;;;;;;;;;;;;;;;-144.99;91.19;52254.47;5119213;27;20003;-73
2022/06/19 12:50:09;;;;;;;;;;;;;;;-144.99;91.09;52248.34;5118966;27;19939;-74